createdAt,value
2019-02-25T00:00:44.443Z,5.45
2019-02-25T00:01:18.880Z,5.41
2019-02-25T00:01:51.592Z,5.42
2019-02-25T00:02:27.748Z,5.37
2019-02-25T00:02:59.050Z,5.32
2019-02-25T00:03:30.446Z,5.27
2019-02-25T00:04:01.767Z,5.21
2019-02-25T00:04:33.359Z,5.27
2019-02-25T00:05:05.995Z,5.34
2019-02-25T00:05:38.330Z,5.46
2019-02-25T00:06:09.598Z,5.48
2019-02-25T00:06:41.252Z,5.50
2019-02-25T00:07:12.606Z,5.48
2019-02-25T00:07:43.908Z,5.43
2019-02-25T00:08:15.165Z,5.43
2019-02-25T00:08:46.568Z,5.34
2019-02-25T00:09:17.949Z,5.31
2019-02-25T00:09:49.249Z,5.22
2019-02-25T00:10:20.459Z,5.24
2019-02-25T00:10:51.995Z,5.32
2019-02-25T00:11:23.238Z,5.39
2019-02-25T00:11:54.665Z,5.48
2019-02-25T00:12:26.024Z,5.53
2019-02-25T00:12:57.439Z,5.50
2019-02-25T00:13:28.862Z,5.50
2019-02-25T00:14:00.220Z,5.45
2019-02-25T00:14:31.583Z,5.41
2019-02-25T00:15:06.315Z,5.35
2019-02-25T00:15:37.792Z,5.29
2019-02-25T00:16:09.555Z,5.28
2019-02-25T00:16:41.137Z,5.24
2019-02-25T00:17:12.479Z,5.31
2019-02-25T00:17:43.799Z,5.35
2019-02-25T00:18:15.187Z,5.41
2019-02-25T00:18:46.568Z,5.42
2019-02-25T00:19:18.140Z,5.43
2019-02-25T00:19:49.685Z,5.41
2019-02-25T00:20:21.267Z,5.38
2019-02-25T00:20:52.741Z,5.31
2019-02-25T00:21:24.349Z,5.25
2019-02-25T00:21:55.798Z,5.22
2019-02-25T00:22:27.150Z,5.24
2019-02-25T00:22:58.590Z,5.35
2019-02-25T00:23:30.077Z,5.46
2019-02-25T00:24:01.420Z,5.50
2019-02-25T00:24:33.008Z,5.50
2019-02-25T00:25:11.160Z,5.52
2019-02-25T00:25:43.522Z,5.43
2019-02-25T00:26:15.091Z,5.38
2019-02-25T00:26:46.376Z,5.31
2019-02-25T00:27:17.866Z,5.24
2019-02-25T00:27:49.215Z,5.24
2019-02-25T00:28:20.461Z,5.27
2019-02-25T00:28:52.862Z,5.42
2019-02-25T00:29:24.292Z,5.48
2019-02-25T00:29:55.714Z,5.49
2019-02-25T00:30:27.028Z,5.50
2019-02-25T00:30:58.465Z,5.46
2019-02-25T00:31:29.756Z,5.41
2019-02-25T00:32:01.154Z,5.37
2019-02-25T00:32:32.610Z,5.31
2019-02-25T00:33:04.216Z,5.22
2019-02-25T00:33:36.536Z,5.22
2019-02-25T00:34:07.910Z,5.31
2019-02-25T00:34:39.244Z,5.43
2019-02-25T00:35:11.734Z,5.52
2019-02-25T00:35:43.114Z,5.53
2019-02-25T00:36:14.453Z,5.50
2019-02-25T00:36:45.734Z,5.49
2019-02-25T00:37:16.996Z,5.42
2019-02-25T00:37:48.439Z,5.35
2019-02-25T00:38:20.127Z,5.27
2019-02-25T00:38:51.430Z,5.21
2019-02-25T00:39:23.895Z,5.27
2019-02-25T00:39:55.278Z,5.35
2019-02-25T00:40:27.728Z,5.46
2019-02-25T00:40:59.247Z,5.52
2019-02-25T00:41:30.517Z,5.52
2019-02-25T00:42:01.839Z,5.50
2019-02-25T00:42:33.187Z,5.48
2019-02-25T00:43:04.472Z,5.39
2019-02-25T00:43:35.761Z,5.35
2019-02-25T00:44:07.043Z,5.28
2019-02-25T00:44:38.291Z,5.19
2019-02-25T00:45:12.437Z,5.24
2019-02-25T00:45:43.805Z,5.38
2019-02-25T00:46:15.411Z,5.48
2019-02-25T00:46:47.639Z,5.53
2019-02-25T00:47:19.149Z,5.56
2019-02-25T00:47:50.607Z,5.55
2019-02-25T00:48:21.947Z,5.48
2019-02-25T00:48:53.284Z,5.42
2019-02-25T00:49:24.996Z,5.37
2019-02-25T00:49:56.334Z,5.28
2019-02-25T00:50:27.814Z,5.22
2019-02-25T00:50:59.123Z,5.22
2019-02-25T00:51:31.621Z,5.34
2019-02-25T00:52:03.076Z,5.45
2019-02-25T00:52:34.616Z,5.52
2019-02-25T00:53:05.915Z,5.55
2019-02-25T00:53:37.393Z,5.50
2019-02-25T00:54:08.800Z,5.48
2019-02-25T00:54:40.163Z,5.43
2019-02-25T00:55:12.218Z,5.35
2019-02-25T00:55:43.584Z,5.28
2019-02-25T00:56:14.970Z,5.18
2019-02-25T00:56:46.308Z,5.22
2019-02-25T00:57:17.967Z,5.34
2019-02-25T00:57:49.378Z,5.45
2019-02-25T00:58:20.814Z,5.52
2019-02-25T00:58:52.219Z,5.56
2019-02-25T00:59:23.532Z,5.53
2019-02-25T00:59:56.010Z,5.49
2019-02-25T01:00:27.414Z,5.43
2019-02-25T01:00:58.801Z,5.37
2019-02-25T01:01:30.138Z,5.25
2019-02-25T01:02:01.418Z,5.21
2019-02-25T01:02:32.721Z,5.24
2019-02-25T01:03:04.337Z,5.37
2019-02-25T01:03:35.739Z,5.46
2019-02-25T01:04:07.135Z,5.55
2019-02-25T01:04:38.555Z,5.59
2019-02-25T01:05:09.929Z,5.56
2019-02-25T01:05:41.239Z,5.48
2019-02-25T01:06:12.504Z,5.42
2019-02-25T01:06:43.903Z,5.37
2019-02-25T01:07:15.454Z,5.24
2019-02-25T01:07:46.978Z,5.18
2019-02-25T01:08:18.405Z,5.24
2019-02-25T01:08:49.684Z,5.37
2019-02-25T01:09:21.145Z,5.52
2019-02-25T01:09:52.431Z,5.58
2019-02-25T01:10:23.805Z,5.59
2019-02-25T01:10:55.150Z,5.58
2019-02-25T01:11:26.725Z,5.53
2019-02-25T01:11:58.061Z,5.45
2019-02-25T01:12:29.390Z,5.35
2019-02-25T01:13:00.688Z,5.27
2019-02-25T01:13:32.184Z,5.17
2019-02-25T01:14:03.543Z,5.21
2019-02-25T01:14:34.878Z,5.34
2019-02-25T01:15:09.812Z,5.48
2019-02-25T01:15:41.258Z,5.55
2019-02-25T01:16:12.779Z,5.58
2019-02-25T01:16:44.350Z,5.52
2019-02-25T01:17:15.673Z,5.48
2019-02-25T01:17:47.014Z,5.39
2019-02-25T01:18:18.325Z,5.35
2019-02-25T01:18:49.691Z,5.24
2019-02-25T01:19:21.086Z,5.17
2019-02-25T01:19:52.421Z,5.24
2019-02-25T01:20:24.778Z,5.39
2019-02-25T01:20:56.184Z,5.50
2019-02-25T01:21:27.482Z,5.53
2019-02-25T01:21:58.843Z,5.58
2019-02-25T01:22:30.184Z,5.52
2019-02-25T01:23:01.539Z,5.46
2019-02-25T01:23:32.918Z,5.39
2019-02-25T01:24:04.445Z,5.29
2019-02-25T01:24:35.838Z,5.22
2019-02-25T01:25:14.943Z,5.17
2019-02-25T01:25:46.369Z,5.31
2019-02-25T01:26:18.134Z,5.46
2019-02-25T01:26:49.456Z,5.56
2019-02-25T01:27:20.973Z,5.62
2019-02-25T01:27:52.335Z,5.56
2019-02-25T01:28:23.761Z,5.52
2019-02-25T01:28:55.087Z,5.43
2019-02-25T01:29:26.617Z,5.34
2019-02-25T01:29:57.900Z,5.22
2019-02-25T01:30:29.196Z,5.18
2019-02-25T01:31:00.522Z,5.24
2019-02-25T01:31:32.035Z,5.38
2019-02-25T01:32:03.419Z,5.52
2019-02-25T01:32:34.732Z,5.59
2019-02-25T01:33:06.090Z,5.61
2019-02-25T01:33:37.476Z,5.55
2019-02-25T01:34:08.830Z,5.49
2019-02-25T01:34:40.378Z,5.38
2019-02-25T01:35:12.213Z,5.31
2019-02-25T01:35:43.686Z,5.18
2019-02-25T01:36:14.970Z,5.17
2019-02-25T01:36:46.406Z,5.27
2019-02-25T01:37:17.731Z,5.42
2019-02-25T01:37:49.309Z,5.53
2019-02-25T01:38:20.638Z,5.62
2019-02-25T01:38:51.943Z,5.58
2019-02-25T01:39:23.176Z,5.53
2019-02-25T01:39:54.602Z,5.43
2019-02-25T01:40:26.034Z,5.32
2019-02-25T01:40:57.426Z,5.24
2019-02-25T01:41:28.863Z,5.17
2019-02-25T01:42:00.198Z,5.21
2019-02-25T01:42:31.583Z,5.38
2019-02-25T01:43:02.895Z,5.52
2019-02-25T01:43:34.149Z,5.56
2019-02-25T01:44:05.523Z,5.59
2019-02-25T01:44:37.832Z,5.56
2019-02-25T01:45:16.485Z,5.48
2019-02-25T01:45:48.413Z,5.38
2019-02-25T01:46:19.871Z,5.27
2019-02-25T01:46:51.315Z,5.19
2019-02-25T01:47:22.700Z,5.21
2019-02-25T01:47:54.100Z,5.32
2019-02-25T01:48:25.452Z,5.48
2019-02-25T01:48:56.951Z,5.55
2019-02-25T01:49:28.246Z,5.58
2019-02-25T01:49:59.567Z,5.56
2019-02-25T01:50:31.119Z,5.53
2019-02-25T01:51:02.474Z,5.42
2019-02-25T01:51:33.864Z,5.32
2019-02-25T01:52:05.331Z,5.25
2019-02-25T01:52:36.996Z,5.17
2019-02-25T01:53:08.258Z,5.24
2019-02-25T01:53:39.710Z,5.35
2019-02-25T01:54:11.247Z,5.49
2019-02-25T01:54:42.670Z,5.58
2019-02-25T01:55:14.364Z,5.58
2019-02-25T01:55:45.816Z,5.53
2019-02-25T01:56:17.435Z,5.46
2019-02-25T01:56:48.955Z,5.43
2019-02-25T01:57:20.373Z,5.35
2019-02-25T01:57:51.664Z,5.24
2019-02-25T01:58:23.073Z,5.21
2019-02-25T01:58:54.427Z,5.27
2019-02-25T01:59:25.661Z,5.41
2019-02-25T01:59:57.021Z,5.52
2019-02-25T02:00:28.477Z,5.59
2019-02-25T02:01:00.016Z,5.58
2019-02-25T02:01:31.419Z,5.53
2019-02-25T02:02:03.861Z,5.49
2019-02-25T02:02:35.384Z,5.42
2019-02-25T02:03:06.750Z,5.32
2019-02-25T02:03:38.058Z,5.19
2019-02-25T02:04:09.618Z,5.19
2019-02-25T02:04:41.124Z,5.29
2019-02-25T02:05:12.692Z,5.41
2019-02-25T02:05:44.007Z,5.55
2019-02-25T02:06:15.412Z,5.58
2019-02-25T02:06:46.749Z,5.58
2019-02-25T02:07:18.312Z,5.53
2019-02-25T02:07:49.606Z,5.43
2019-02-25T02:08:21.020Z,5.32
2019-02-25T02:08:52.290Z,5.22
2019-02-25T02:09:23.891Z,5.18
2019-02-25T02:09:55.553Z,5.22
2019-02-25T02:10:27.051Z,5.39
2019-02-25T02:10:58.434Z,5.52
2019-02-25T02:11:29.889Z,5.61
2019-02-25T02:12:01.180Z,5.61
2019-02-25T02:12:32.703Z,5.55
2019-02-25T02:13:13.781Z,5.48
2019-02-25T02:13:37.329Z,5.39
2019-02-25T02:14:08.709Z,5.31
2019-02-25T02:14:40.111Z,5.18
2019-02-25T02:15:14.843Z,5.21
2019-02-25T02:15:46.289Z,5.29
2019-02-25T02:16:17.671Z,5.46
2019-02-25T02:16:49.201Z,5.52
2019-02-25T02:17:20.713Z,5.61
2019-02-25T02:17:52.058Z,5.55
2019-02-25T02:18:23.405Z,5.50
2019-02-25T02:18:54.767Z,5.43
2019-02-25T02:19:26.195Z,5.35
2019-02-25T02:19:57.501Z,5.25
2019-02-25T02:20:29.030Z,5.14
2019-02-25T02:21:00.330Z,5.21
2019-02-25T02:21:31.846Z,5.35
2019-02-25T02:22:03.231Z,5.48
2019-02-25T02:22:34.682Z,5.55
2019-02-25T02:23:07.176Z,5.56
2019-02-25T02:23:38.714Z,5.49
2019-02-25T02:24:10.025Z,5.43
2019-02-25T02:24:41.388Z,5.29
2019-02-25T02:25:13.078Z,5.22
2019-02-25T02:25:44.622Z,5.17
2019-02-25T02:26:16.184Z,5.22
2019-02-25T02:26:47.662Z,5.38
2019-02-25T02:27:19.013Z,5.49
2019-02-25T02:27:50.321Z,5.56
2019-02-25T02:28:21.716Z,5.59
2019-02-25T02:28:53.097Z,5.52
2019-02-25T02:29:24.562Z,5.43
2019-02-25T02:29:55.980Z,5.34
2019-02-25T02:30:27.404Z,5.24
2019-02-25T02:30:58.852Z,5.15
2019-02-25T02:31:30.299Z,5.21
2019-02-25T02:32:01.694Z,5.35
2019-02-25T02:32:33.218Z,5.49
2019-02-25T02:33:04.617Z,5.55
2019-02-25T02:33:36.028Z,5.56
2019-02-25T02:34:07.522Z,5.53
2019-02-25T02:34:39.002Z,5.43
2019-02-25T02:35:10.289Z,5.35
2019-02-25T02:35:41.632Z,5.22
2019-02-25T02:36:13.007Z,5.17
2019-02-25T02:36:44.436Z,5.18
2019-02-25T02:37:15.859Z,5.31
2019-02-25T02:37:47.491Z,5.48
2019-02-25T02:38:18.910Z,5.59
2019-02-25T02:38:50.195Z,5.59
2019-02-25T02:39:21.487Z,5.53
2019-02-25T02:39:52.808Z,5.49
2019-02-25T02:40:24.280Z,5.37
2019-02-25T02:40:55.642Z,5.25
2019-02-25T02:41:27.097Z,5.17
2019-02-25T02:42:18.838Z,5.18
2019-02-25T02:42:59.109Z,5.38
2019-02-25T02:43:30.704Z,5.63
2019-02-25T02:44:02.365Z,5.90
2019-02-25T02:44:33.784Z,6.21
2019-02-25T02:45:20.082Z,6.52
2019-02-25T02:46:06.307Z,6.82
2019-02-25T02:47:01.205Z,6.97
2019-02-25T02:47:43.675Z,6.87
2019-02-25T02:48:27.027Z,6.65
2019-02-25T02:49:01.417Z,6.49
2019-02-25T02:49:32.834Z,6.32
2019-02-25T02:50:12.182Z,6.20
2019-02-25T02:50:43.615Z,6.01
2019-02-25T02:51:15.318Z,5.87
2019-02-25T02:51:46.666Z,5.73
2019-02-25T02:52:18.249Z,5.61
2019-02-25T02:52:49.670Z,5.48
2019-02-25T02:53:21.010Z,5.35
2019-02-25T02:53:52.336Z,5.22
2019-02-25T02:54:23.942Z,5.17
2019-02-25T02:54:55.240Z,5.18
2019-02-25T02:55:26.683Z,5.37
2019-02-25T02:55:57.981Z,5.62
2019-02-25T02:56:29.376Z,5.90
2019-02-25T02:57:00.772Z,6.24
2019-02-25T02:57:32.028Z,6.53
2019-02-25T02:58:03.484Z,6.89
2019-02-25T02:58:34.992Z,7.08
2019-02-25T02:59:06.228Z,7.17
2019-02-25T02:59:37.656Z,7.15
2019-02-25T03:00:17.021Z,7.08
2019-02-25T03:00:48.366Z,6.96
2019-02-25T03:01:19.662Z,6.79
2019-02-25T03:01:51.016Z,6.66
2019-02-25T03:02:22.395Z,6.51
2019-02-25T03:02:54.040Z,6.35
2019-02-25T03:03:25.385Z,6.22
2019-02-25T03:03:56.850Z,6.07
2019-02-25T03:04:28.166Z,5.93
2019-02-25T03:04:59.692Z,5.83
2019-02-25T03:05:31.169Z,5.67
2019-02-25T03:06:02.511Z,5.53
2019-02-25T03:06:33.842Z,5.42
2019-02-25T03:07:05.263Z,5.28
2019-02-25T03:07:36.769Z,5.18
2019-02-25T03:08:08.234Z,5.15
2019-02-25T03:08:39.545Z,5.27
2019-02-25T03:09:11.033Z,5.43
2019-02-25T03:09:42.368Z,5.69
2019-02-25T03:10:16.285Z,5.98
2019-02-25T03:10:47.703Z,6.32
2019-02-25T03:11:19.077Z,6.64
2019-02-25T03:11:50.325Z,6.96
2019-02-25T03:12:21.733Z,7.20
2019-02-25T03:12:53.083Z,7.38
2019-02-25T03:13:24.481Z,7.44
2019-02-25T03:13:55.893Z,7.39
2019-02-25T03:14:27.292Z,7.28
2019-02-25T03:14:58.649Z,7.15
2019-02-25T03:15:30.030Z,6.99
2019-02-25T03:16:01.446Z,6.82
2019-02-25T03:16:32.788Z,6.66
2019-02-25T03:17:04.339Z,6.48
2019-02-25T03:17:35.864Z,6.32
2019-02-25T03:18:07.166Z,6.13
2019-02-25T03:18:38.490Z,5.96
2019-02-25T03:19:09.967Z,5.80
2019-02-25T03:19:41.341Z,5.65
2019-02-25T03:20:12.678Z,5.46
2019-02-25T03:20:44.334Z,5.31
2019-02-25T03:21:15.952Z,5.19
2019-02-25T03:21:48.444Z,5.12
2019-02-25T03:22:19.908Z,5.22
2019-02-25T03:22:51.353Z,5.42
2019-02-25T03:23:22.906Z,5.69
2019-02-25T03:23:54.327Z,6.01
2019-02-25T03:24:25.752Z,6.31
2019-02-25T03:24:57.231Z,6.65
2019-02-25T03:25:28.680Z,6.93
2019-02-25T03:26:00.013Z,7.21
2019-02-25T03:26:31.342Z,7.46
2019-02-25T03:27:02.723Z,7.62
2019-02-25T03:27:33.913Z,7.63
2019-02-25T03:28:05.245Z,7.56
2019-02-25T03:28:36.507Z,7.46
2019-02-25T03:29:07.909Z,7.31
2019-02-25T03:29:39.245Z,7.15
2019-02-25T03:30:19.936Z,6.97
2019-02-25T03:30:51.287Z,6.72
2019-02-25T03:31:22.881Z,6.55
2019-02-25T03:31:54.429Z,6.36
2019-02-25T03:32:25.981Z,6.20
2019-02-25T03:32:57.493Z,6.03
2019-02-25T03:33:28.995Z,5.87
2019-02-25T03:34:00.663Z,5.75
2019-02-25T03:34:32.153Z,5.59
2019-02-25T03:35:03.736Z,5.48
2019-02-25T03:35:35.148Z,5.34
2019-02-25T03:36:06.844Z,5.24
2019-02-25T03:36:38.256Z,5.12
2019-02-25T03:37:09.740Z,5.22
2019-02-25T03:37:41.488Z,5.38
2019-02-25T03:38:12.804Z,5.65
2019-02-25T03:38:44.142Z,5.96
2019-02-25T03:39:15.516Z,6.28
2019-02-25T03:39:46.787Z,6.57
2019-02-25T03:40:22.344Z,6.90
2019-02-25T03:40:54.715Z,7.24
2019-02-25T03:41:26.118Z,7.54
2019-02-25T03:41:57.390Z,7.76
2019-02-25T03:42:28.758Z,7.92
2019-02-25T03:43:00.126Z,7.92
2019-02-25T03:43:31.590Z,7.85
2019-02-25T03:44:03.011Z,7.67
2019-02-25T03:44:35.445Z,7.52
2019-02-25T03:45:12.674Z,7.31
2019-02-25T03:45:44.392Z,7.10
2019-02-25T03:46:15.916Z,6.89
2019-02-25T03:46:47.138Z,6.69
2019-02-25T03:47:18.478Z,6.48
2019-02-25T03:47:49.763Z,6.31
2019-02-25T03:48:21.159Z,6.13
2019-02-25T03:48:52.665Z,5.93
2019-02-25T03:49:24.016Z,5.76
2019-02-25T03:49:55.371Z,5.59
2019-02-25T03:50:26.758Z,5.39
2019-02-25T03:50:58.075Z,5.29
2019-02-25T03:51:29.460Z,5.28
2019-02-25T03:52:00.873Z,5.38
2019-02-25T03:52:32.201Z,5.61
2019-02-25T03:53:03.680Z,5.86
2019-02-25T03:53:35.131Z,6.14
2019-02-25T03:54:06.512Z,6.42
2019-02-25T03:54:37.830Z,6.71
2019-02-25T03:55:17.222Z,6.96
2019-02-25T03:55:48.634Z,7.28
2019-02-25T03:56:20.064Z,7.51
2019-02-25T03:56:51.513Z,7.72
2019-02-25T03:57:23.100Z,7.82
2019-02-25T03:57:54.378Z,7.82
2019-02-25T03:58:25.908Z,7.72
2019-02-25T03:58:57.304Z,7.56
2019-02-25T03:59:28.719Z,7.38
2019-02-25T04:00:00.004Z,7.18
2019-02-25T04:00:31.363Z,6.96
2019-02-25T04:01:02.724Z,6.75
2019-02-25T04:01:35.122Z,6.55
2019-02-25T04:02:06.371Z,6.36
2019-02-25T04:02:37.748Z,6.17
2019-02-25T04:03:09.684Z,5.98
2019-02-25T04:03:41.280Z,5.79
2019-02-25T04:04:12.584Z,5.59
2019-02-25T04:04:43.941Z,5.43
2019-02-25T04:05:15.351Z,5.24
2019-02-25T04:05:46.775Z,5.12
2019-02-25T04:06:18.052Z,5.12
2019-02-25T04:06:49.499Z,5.27
2019-02-25T04:07:20.944Z,5.46
2019-02-25T04:07:52.298Z,5.76
2019-02-25T04:08:23.646Z,6.06
2019-02-25T04:08:55.170Z,6.34
2019-02-25T04:09:26.544Z,6.65
2019-02-25T04:09:58.091Z,6.92
2019-02-25T04:10:29.386Z,7.21
2019-02-25T04:11:00.783Z,7.46
2019-02-25T04:11:32.272Z,7.65
2019-02-25T04:12:03.621Z,7.78
2019-02-25T04:12:35.023Z,7.75
2019-02-25T04:13:06.443Z,7.69
2019-02-25T04:13:37.837Z,7.54
2019-02-25T04:14:09.242Z,7.35
2019-02-25T04:14:40.584Z,7.13
2019-02-25T04:15:17.043Z,6.93
2019-02-25T04:15:48.399Z,6.68
2019-02-25T04:16:19.836Z,6.49
2019-02-25T04:16:51.170Z,6.25
2019-02-25T04:17:22.536Z,6.07
2019-02-25T04:17:53.890Z,5.90
2019-02-25T04:18:25.429Z,5.67
2019-02-25T04:18:56.821Z,5.53
2019-02-25T04:19:28.234Z,5.46
2019-02-25T04:19:59.600Z,5.52
2019-02-25T04:20:30.942Z,5.69
2019-02-25T04:21:02.200Z,5.96
2019-02-25T04:21:33.480Z,6.17
2019-02-25T04:22:04.828Z,6.48
2019-02-25T04:22:36.199Z,6.73
2019-02-25T04:23:07.516Z,7.03
2019-02-25T04:23:39.045Z,7.28
2019-02-25T04:24:10.620Z,7.51
2019-02-25T04:24:42.271Z,7.76
2019-02-25T04:25:13.911Z,7.96
2019-02-25T04:25:45.430Z,8.16
2019-02-25T04:26:16.921Z,8.35
2019-02-25T04:26:48.371Z,8.52
2019-02-25T04:27:19.765Z,8.66
2019-02-25T04:27:51.240Z,8.79
2019-02-25T04:28:22.496Z,8.85
2019-02-25T04:28:53.926Z,8.79
2019-02-25T04:29:25.293Z,8.65
2019-02-25T04:29:56.726Z,8.45
2019-02-25T04:30:27.996Z,8.23
2019-02-25T04:30:59.290Z,7.99
2019-02-25T04:31:30.620Z,7.76
2019-02-25T04:32:02.124Z,7.51
2019-02-25T04:32:35.043Z,7.31
2019-02-25T04:33:06.528Z,7.08
2019-02-25T04:33:38.135Z,6.86
2019-02-25T04:34:09.643Z,6.72
2019-02-25T04:34:41.062Z,6.68
2019-02-25T04:35:13.161Z,6.78
2019-02-25T04:35:45.805Z,6.93
2019-02-25T04:36:17.212Z,7.17
2019-02-25T04:36:48.590Z,7.42
2019-02-25T04:37:19.851Z,7.69
2019-02-25T04:37:51.334Z,7.92
2019-02-25T04:38:22.688Z,8.16
2019-02-25T04:38:54.129Z,8.40
2019-02-25T04:39:25.431Z,8.58
2019-02-25T04:39:56.817Z,8.76
2019-02-25T04:40:28.232Z,8.92
2019-02-25T04:40:59.575Z,9.09
2019-02-25T04:41:30.888Z,9.23
2019-02-25T04:42:02.345Z,9.35
2019-02-25T04:42:33.889Z,9.40
2019-02-25T04:43:05.360Z,9.33
2019-02-25T04:43:36.814Z,9.17
2019-02-25T04:44:08.219Z,8.96
2019-02-25T04:44:39.483Z,8.73
2019-02-25T04:45:17.742Z,8.52
2019-02-25T04:45:49.167Z,8.17
2019-02-25T04:46:20.662Z,7.89
2019-02-25T04:46:52.029Z,7.66
2019-02-25T04:47:23.412Z,7.42
2019-02-25T04:47:54.926Z,7.20
2019-02-25T04:48:26.359Z,6.96
2019-02-25T04:48:57.991Z,6.79
2019-02-25T04:49:29.527Z,6.75
2019-02-25T04:50:01.022Z,6.82
2019-02-25T04:50:32.518Z,6.97
2019-02-25T04:51:03.966Z,7.18
2019-02-25T04:51:35.446Z,7.46
2019-02-25T04:52:06.970Z,7.69
2019-02-25T04:52:38.504Z,7.96
2019-02-25T04:53:09.941Z,8.16
2019-02-25T04:53:41.302Z,8.41
2019-02-25T04:54:12.771Z,8.59
2019-02-25T04:54:44.119Z,8.76
2019-02-25T04:55:15.459Z,8.92
2019-02-25T04:55:47.006Z,9.07
2019-02-25T04:56:18.620Z,9.20
2019-02-25T04:56:50.052Z,9.26
2019-02-25T04:57:21.712Z,9.19
2019-02-25T04:57:53.298Z,9.02
2019-02-25T04:58:24.755Z,8.85
2019-02-25T04:58:56.351Z,8.61
2019-02-25T04:59:27.895Z,8.35
2019-02-25T04:59:59.351Z,8.11
2019-02-25T05:00:30.911Z,7.88
2019-02-25T05:01:02.391Z,7.62
2019-02-25T05:01:33.879Z,7.41
2019-02-25T05:02:05.389Z,7.21
2019-02-25T05:02:36.629Z,7.00
2019-02-25T05:03:09.113Z,6.93
2019-02-25T05:03:40.544Z,7.02
2019-02-25T05:04:11.923Z,7.14
2019-02-25T05:04:43.248Z,7.34
2019-02-25T05:05:14.801Z,7.59
2019-02-25T05:05:46.155Z,7.86
2019-02-25T05:06:17.815Z,8.09
2019-02-25T05:06:49.045Z,8.37
2019-02-25T05:07:20.396Z,8.62
2019-02-25T05:07:51.816Z,8.83
2019-02-25T05:08:23.274Z,9.02
2019-02-25T05:08:54.707Z,9.21
2019-02-25T05:09:26.023Z,9.37
2019-02-25T05:09:57.310Z,9.52
2019-02-25T05:10:28.871Z,9.58
2019-02-25T05:11:00.258Z,9.54
2019-02-25T05:11:33.166Z,9.35
2019-02-25T05:12:04.495Z,9.14
2019-02-25T05:12:36.028Z,8.90
2019-02-25T05:13:08.037Z,8.65
2019-02-25T05:13:39.480Z,8.40
2019-02-25T05:14:10.985Z,8.11
2019-02-25T05:14:42.367Z,7.85
2019-02-25T05:15:15.620Z,7.63
2019-02-25T05:15:47.086Z,7.35
2019-02-25T05:16:18.453Z,7.23
2019-02-25T05:16:49.802Z,7.15
2019-02-25T05:17:22.171Z,7.23
2019-02-25T05:17:53.572Z,7.39
2019-02-25T05:18:25.042Z,7.56
2019-02-25T05:18:56.345Z,7.82
2019-02-25T05:19:27.796Z,8.10
2019-02-25T05:19:59.057Z,8.32
2019-02-25T05:20:30.393Z,8.58
2019-02-25T05:21:02.684Z,8.76
2019-02-25T05:21:34.091Z,8.99
2019-02-25T05:22:05.495Z,9.17
2019-02-25T05:22:37.674Z,9.31
2019-02-25T05:23:09.283Z,9.45
2019-02-25T05:23:40.817Z,9.63
2019-02-25T05:24:12.167Z,9.73
2019-02-25T05:24:43.675Z,9.72
2019-02-25T05:25:15.277Z,9.65
2019-02-25T05:25:46.685Z,9.47
2019-02-25T05:26:18.329Z,9.24
2019-02-25T05:26:49.791Z,9.00
2019-02-25T05:27:21.313Z,8.78
2019-02-25T05:27:52.588Z,8.51
2019-02-25T05:28:24.124Z,8.23
2019-02-25T05:28:55.486Z,7.96
2019-02-25T05:29:26.885Z,7.70
2019-02-25T05:29:58.184Z,7.51
2019-02-25T05:30:29.626Z,7.45
2019-02-25T05:31:00.938Z,7.48
2019-02-25T05:31:32.513Z,7.66
2019-02-25T05:32:03.967Z,7.83
2019-02-25T05:32:35.276Z,8.09
2019-02-25T05:33:06.556Z,8.34
2019-02-25T05:33:37.889Z,8.53
2019-02-25T05:34:09.318Z,8.76
2019-02-25T05:34:40.825Z,8.96
2019-02-25T05:35:12.627Z,9.13
2019-02-25T05:35:46.238Z,9.34
2019-02-25T05:36:17.612Z,9.51
2019-02-25T05:36:49.006Z,9.65
2019-02-25T05:37:20.320Z,9.81
2019-02-25T05:37:51.731Z,9.88
2019-02-25T05:38:23.253Z,9.90
2019-02-25T05:38:54.598Z,9.82
2019-02-25T05:39:26.005Z,9.65
2019-02-25T05:39:57.489Z,9.45
2019-02-25T05:40:29.038Z,9.20
2019-02-25T05:41:00.327Z,8.92
2019-02-25T05:41:31.979Z,8.66
2019-02-25T05:42:03.387Z,8.40
2019-02-25T05:42:34.863Z,8.10
2019-02-25T05:43:06.192Z,7.88
2019-02-25T05:43:37.639Z,7.67
2019-02-25T05:44:09.019Z,7.63
2019-02-25T05:44:40.537Z,7.66
2019-02-25T05:45:13.237Z,7.79
2019-02-25T05:45:44.671Z,7.99
2019-02-25T05:46:15.988Z,8.23
2019-02-25T05:46:47.346Z,8.45
2019-02-25T05:47:18.851Z,8.63
2019-02-25T05:47:50.183Z,8.86
2019-02-25T05:48:21.545Z,9.06
2019-02-25T05:48:52.966Z,9.27
2019-02-25T05:49:24.266Z,9.44
2019-02-25T05:49:55.620Z,9.58
2019-02-25T05:50:26.978Z,9.70
2019-02-25T05:50:58.473Z,9.85
2019-02-25T05:51:29.860Z,9.98
2019-02-25T05:52:01.310Z,10.05
2019-02-25T05:52:32.731Z,10.03
2019-02-25T05:53:04.227Z,9.96
2019-02-25T05:53:35.461Z,9.78
2019-02-25T05:54:06.855Z,9.54
2019-02-25T05:54:38.211Z,9.30
2019-02-25T05:55:12.183Z,9.04
2019-02-25T05:55:43.679Z,8.76
2019-02-25T05:56:15.546Z,8.51
2019-02-25T05:56:46.910Z,8.27
2019-02-25T05:57:18.240Z,8.03
2019-02-25T05:57:49.584Z,7.85
2019-02-25T05:58:21.095Z,7.79
2019-02-25T05:58:52.529Z,7.86
2019-02-25T05:59:23.807Z,8.00
2019-02-25T05:59:55.115Z,8.20
2019-02-25T06:00:28.431Z,8.40
2019-02-25T06:01:00.948Z,8.65
2019-02-25T06:01:32.277Z,8.82
2019-02-25T06:02:05.430Z,9.02
2019-02-25T06:02:36.794Z,9.21
2019-02-25T06:03:08.017Z,9.40
2019-02-25T06:03:40.144Z,9.54
2019-02-25T06:04:11.415Z,9.69
2019-02-25T06:04:42.874Z,9.88
2019-02-25T06:05:14.159Z,9.98
2019-02-25T06:05:45.768Z,10.09
2019-02-25T06:06:17.144Z,10.19
2019-02-25T06:06:48.551Z,10.16
2019-02-25T06:07:19.841Z,10.05
2019-02-25T06:07:51.250Z,9.89
2019-02-25T06:08:22.663Z,9.65
2019-02-25T06:08:54.144Z,9.38
2019-02-25T06:09:25.557Z,9.13
2019-02-25T06:09:57.013Z,8.85
2019-02-25T06:10:28.469Z,8.58
2019-02-25T06:10:59.954Z,8.32
2019-02-25T06:11:31.241Z,8.10
2019-02-25T06:12:02.573Z,8.02
2019-02-25T06:12:33.945Z,8.00
2019-02-25T06:13:05.552Z,8.17
2019-02-25T06:13:36.863Z,8.34
2019-02-25T06:14:09.016Z,8.58
2019-02-25T06:14:40.411Z,8.78
2019-02-25T06:15:17.454Z,9.00
2019-02-25T06:15:48.807Z,9.20
2019-02-25T06:16:20.300Z,9.37
2019-02-25T06:16:51.696Z,9.54
2019-02-25T06:17:23.197Z,9.69
2019-02-25T06:17:54.586Z,9.85
2019-02-25T06:18:25.928Z,9.98
2019-02-25T06:18:58.305Z,10.10
2019-02-25T06:19:29.731Z,10.24
2019-02-25T06:20:01.174Z,10.26
2019-02-25T06:20:32.588Z,10.17
2019-02-25T06:21:03.986Z,10.03
2019-02-25T06:21:35.301Z,9.76
2019-02-25T06:22:06.646Z,9.55
2019-02-25T06:22:38.111Z,9.28
2019-02-25T06:23:09.478Z,9.02
2019-02-25T06:23:40.757Z,8.78
2019-02-25T06:24:12.146Z,8.52
2019-02-25T06:24:43.444Z,8.27
2019-02-25T06:25:16.015Z,8.07
2019-02-25T06:25:47.408Z,7.97
2019-02-25T06:26:19.091Z,8.02
2019-02-25T06:26:50.414Z,8.17
2019-02-25T06:27:30.513Z,8.34
2019-02-25T06:27:55.109Z,8.56
2019-02-25T06:28:26.576Z,8.75
2019-02-25T06:28:57.901Z,9.00
2019-02-25T06:29:29.368Z,9.19
2019-02-25T06:30:00.876Z,9.35
2019-02-25T06:30:32.385Z,9.54
2019-02-25T06:31:03.880Z,9.70
2019-02-25T06:31:35.393Z,9.86
2019-02-25T06:32:06.862Z,9.96
2019-02-25T06:32:38.357Z,10.09
2019-02-25T06:33:09.745Z,10.20
2019-02-25T06:33:41.006Z,10.31
2019-02-25T06:34:12.403Z,10.30
2019-02-25T06:34:43.665Z,10.19
2019-02-25T06:35:15.276Z,10.05
2019-02-25T06:35:46.573Z,9.82
2019-02-25T06:36:18.072Z,9.61
2019-02-25T06:36:49.331Z,9.34
2019-02-25T06:37:20.846Z,9.09
2019-02-25T06:37:52.277Z,8.83
2019-02-25T06:38:23.780Z,8.58
2019-02-25T06:38:55.203Z,8.35
2019-02-25T06:39:26.691Z,8.14
2019-02-25T06:39:58.048Z,8.07
2019-02-25T06:40:30.566Z,8.10
2019-02-25T06:41:01.932Z,8.28
2019-02-25T06:41:33.347Z,8.48
2019-02-25T06:42:04.724Z,8.73
2019-02-25T06:42:36.050Z,8.95
2019-02-25T06:43:07.285Z,9.13
2019-02-25T06:43:38.725Z,9.31
2019-02-25T06:44:10.165Z,9.51
2019-02-25T06:44:41.698Z,9.66
2019-02-25T06:45:17.413Z,9.81
2019-02-25T06:45:49.045Z,9.99
2019-02-25T06:46:20.574Z,10.14
2019-02-25T06:46:52.023Z,10.26
2019-02-25T06:47:23.580Z,10.36
2019-02-25T06:47:54.980Z,10.37
2019-02-25T06:48:26.344Z,10.26
2019-02-25T06:48:57.665Z,10.10
2019-02-25T06:49:29.016Z,9.89
2019-02-25T06:50:00.319Z,9.66
2019-02-25T06:50:31.702Z,9.44
2019-02-25T06:51:03.042Z,9.19
2019-02-25T06:51:34.404Z,8.95
2019-02-25T06:52:05.628Z,8.69
2019-02-25T06:52:36.950Z,8.47
2019-02-25T06:53:08.298Z,8.27
2019-02-25T06:53:39.713Z,8.20
2019-02-25T06:54:11.200Z,8.25
2019-02-25T06:54:42.606Z,8.40
2019-02-25T06:55:16.110Z,8.61
2019-02-25T06:55:47.565Z,8.85
2019-02-25T06:56:19.102Z,9.10
2019-02-25T06:56:50.462Z,9.28
2019-02-25T06:57:21.787Z,9.51
2019-02-25T06:57:53.193Z,9.72
2019-02-25T06:58:24.525Z,9.90
2019-02-25T06:58:55.883Z,10.07
2019-02-25T06:59:27.383Z,10.26
2019-02-25T06:59:58.684Z,10.38
2019-02-25T07:00:30.037Z,10.52
2019-02-25T07:01:01.355Z,10.51
2019-02-25T07:01:32.905Z,10.43
2019-02-25T07:02:04.185Z,10.27
2019-02-25T07:02:35.579Z,10.06